createdAt,value
2018-06-22T00:01:57.268Z,16.80
2018-06-22T00:04:25.632Z,16.60
2018-06-22T00:06:53.985Z,16.50
2018-06-22T00:09:22.339Z,16.50
2018-06-22T00:11:50.670Z,16.40
2018-06-22T00:14:19.023Z,16.50
2018-06-22T00:16:47.388Z,16.60
2018-06-22T00:19:15.738Z,16.60
2018-06-22T00:21:44.067Z,16.80
2018-06-22T00:24:12.437Z,16.70
2018-06-22T00:26:40.838Z,16.70
2018-06-22T00:31:37.274Z,16.80
2018-06-22T00:34:05.671Z,16.80
2018-06-22T00:36:34.039Z,16.70
2018-06-22T00:39:02.459Z,16.50
2018-06-22T00:41:30.814Z,16.40
2018-06-22T00:43:59.164Z,16.40
2018-06-22T00:46:27.588Z,16.40
2018-06-22T00:48:56.024Z,16.50
2018-06-22T00:51:24.420Z,16.30
2018-06-22T00:54:04.039Z,16.20
2018-06-22T00:56:32.585Z,16.30
2018-06-22T00:59:00.958Z,16.00
2018-06-22T01:01:29.390Z,16.00
2018-06-22T01:03:58.214Z,15.80
2018-06-22T01:06:27.429Z,15.90
2018-06-22T01:08:55.860Z,16.10
2018-06-22T01:11:24.277Z,16.10
2018-06-22T01:13:52.711Z,16.10
2018-06-22T01:16:21.119Z,16.10
2018-06-22T01:18:49.541Z,16.10
2018-06-22T01:21:17.977Z,16.00
2018-06-22T01:23:46.427Z,15.90
2018-06-22T01:26:14.882Z,15.70
2018-06-22T01:28:43.396Z,15.70
2018-06-22T01:31:11.808Z,15.70
2018-06-22T01:33:40.243Z,15.70
2018-06-22T01:36:08.690Z,15.60
2018-06-22T01:38:37.085Z,15.70
2018-06-22T01:41:05.492Z,15.70
2018-06-22T01:43:33.923Z,15.50
2018-06-22T01:46:02.376Z,15.70
2018-06-22T01:48:30.824Z,15.60
2018-06-22T01:50:59.256Z,15.50
2018-06-22T01:53:27.646Z,15.50
2018-06-22T01:55:56.055Z,15.50
2018-06-22T01:58:24.514Z,15.40
2018-06-22T02:03:21.022Z,15.30
2018-06-22T02:05:49.492Z,15.30
2018-06-22T02:08:17.851Z,15.40
2018-06-22T02:10:46.312Z,15.10
2018-06-22T02:13:14.738Z,15.00
2018-06-22T02:15:43.272Z,14.90
2018-06-22T02:18:11.698Z,15.20
2018-06-22T02:20:40.108Z,15.00
2018-06-22T02:23:08.599Z,14.90
2018-06-22T02:25:37.026Z,14.90
2018-06-22T02:28:05.839Z,15.10
2018-06-22T02:30:34.263Z,14.80
2018-06-22T02:33:02.779Z,14.90
2018-06-22T02:35:31.349Z,14.90
2018-06-22T02:37:59.775Z,14.80
2018-06-22T02:40:28.247Z,14.80
2018-06-22T02:42:56.686Z,14.70
2018-06-22T02:45:25.080Z,14.60
2018-06-22T02:47:53.495Z,14.50
2018-06-22T02:50:21.914Z,14.50
2018-06-22T02:52:50.323Z,14.50
2018-06-22T02:55:18.784Z,14.50
2018-06-22T02:57:47.190Z,14.40
2018-06-22T03:00:15.611Z,14.30
2018-06-22T03:02:44.032Z,14.30
2018-06-22T03:05:12.430Z,14.20
2018-06-22T03:07:40.831Z,14.20
2018-06-22T03:10:09.251Z,14.10
2018-06-22T03:12:37.658Z,14.00
2018-06-22T03:15:06.108Z,13.90
2018-06-22T03:17:34.510Z,13.90
2018-06-22T03:20:02.889Z,13.80
2018-06-22T03:22:31.302Z,13.70
2018-06-22T03:24:59.680Z,13.60
2018-06-22T03:27:28.045Z,13.60
2018-06-22T03:29:56.417Z,13.50
2018-06-22T03:34:52.925Z,13.40
2018-06-22T03:37:21.282Z,13.40
2018-06-22T03:39:49.649Z,13.50
2018-06-22T03:42:18.052Z,13.80
2018-06-22T03:47:14.478Z,13.60
2018-06-22T03:49:42.895Z,13.50
2018-06-22T03:52:11.256Z,13.50
2018-06-22T03:54:39.605Z,13.60
2018-06-22T03:57:08.001Z,13.60
2018-06-22T03:59:36.370Z,13.60
2018-06-22T04:02:04.803Z,13.60
2018-06-22T04:04:33.218Z,13.60
2018-06-22T04:07:01.582Z,13.60
2018-06-22T04:09:29.981Z,13.60
2018-06-22T04:11:58.946Z,13.60
2018-06-22T04:14:27.313Z,13.70
2018-06-22T04:16:55.701Z,13.70
2018-06-22T04:19:24.061Z,13.70
2018-06-22T04:21:52.437Z,13.80
2018-06-22T04:24:20.855Z,13.50
2018-06-22T04:26:49.223Z,13.70
2018-06-22T04:29:18.786Z,13.60
2018-06-22T04:31:47.163Z,13.80
2018-06-22T04:34:16.085Z,13.80
2018-06-22T04:36:44.441Z,13.90
2018-06-22T04:39:13.385Z,13.80
2018-06-22T04:41:41.929Z,13.80
2018-06-22T04:44:10.313Z,14.00
2018-06-22T04:46:38.709Z,14.00
2018-06-22T04:49:07.069Z,14.20
2018-06-22T04:51:35.456Z,14.20
2018-06-22T04:54:03.872Z,14.20
2018-06-22T04:56:32.538Z,14.50
2018-06-22T04:59:00.925Z,14.50
2018-06-22T05:01:29.833Z,14.70
2018-06-22T05:03:58.216Z,14.50
2018-06-22T05:06:26.909Z,14.50
2018-06-22T05:08:55.347Z,14.60
2018-06-22T05:11:23.993Z,14.60
2018-06-22T05:13:52.410Z,14.50
2018-06-22T05:16:20.797Z,14.50
2018-06-22T05:18:49.174Z,14.50
2018-06-22T05:21:17.553Z,14.50
2018-06-22T05:23:45.938Z,14.60
2018-06-22T05:26:14.334Z,14.60
2018-06-22T05:28:42.730Z,14.50
2018-06-22T05:31:11.094Z,14.60
2018-06-22T05:33:39.490Z,14.70
2018-06-22T05:36:07.943Z,14.60
2018-06-22T05:38:36.482Z,14.70
2018-06-22T05:41:04.855Z,14.70
2018-06-22T05:43:33.249Z,14.70
2018-06-22T05:46:01.633Z,14.70
2018-06-22T05:48:30.019Z,14.80
2018-06-22T05:50:58.476Z,14.80
2018-06-22T05:53:26.837Z,14.90
2018-06-22T05:55:55.202Z,14.80
2018-06-22T05:58:23.597Z,15.00
2018-06-22T06:00:52.750Z,14.90
2018-06-22T06:03:21.126Z,15.00
2018-06-22T06:05:49.505Z,15.00
2018-06-22T06:08:17.890Z,15.10
2018-06-22T06:10:46.271Z,15.30
2018-06-22T06:13:14.670Z,15.30
2018-06-22T06:15:43.086Z,15.40
2018-06-22T06:18:11.452Z,15.50
2018-06-22T06:20:39.862Z,15.50
2018-06-22T06:23:08.228Z,15.50
2018-06-22T06:25:36.630Z,15.40
2018-06-22T06:28:05.161Z,15.40
2018-06-22T06:30:33.538Z,15.40
2018-06-22T06:33:01.929Z,15.30
2018-06-22T06:35:30.321Z,15.30
2018-06-22T06:37:58.696Z,15.30
2018-06-22T06:40:27.114Z,15.30
2018-06-22T06:42:55.492Z,15.30
2018-06-22T06:45:23.857Z,15.30
2018-06-22T06:47:52.264Z,15.40
2018-06-22T06:50:20.667Z,15.40
2018-06-22T06:52:49.074Z,15.40
2018-06-22T06:55:17.461Z,15.40
2018-06-22T06:57:45.847Z,15.30
2018-06-22T07:00:14.341Z,15.40
2018-06-22T07:02:42.722Z,15.50
2018-06-22T07:05:11.097Z,15.70
2018-06-22T07:07:39.617Z,15.80
2018-06-22T07:10:08.086Z,15.80
2018-06-22T07:12:36.448Z,15.80
2018-06-22T07:15:10.417Z,15.80
2018-06-22T07:17:38.789Z,15.70
2018-06-22T07:20:07.345Z,15.80
2018-06-22T07:22:35.830Z,15.90
2018-06-22T07:25:04.281Z,16.00
2018-06-22T07:27:32.638Z,16.00
2018-06-22T07:30:01.048Z,15.90
2018-06-22T07:32:29.441Z,15.80
2018-06-22T07:34:57.814Z,15.80
2018-06-22T07:37:26.234Z,15.90
2018-06-22T07:39:54.606Z,15.90
2018-06-22T07:42:23.010Z,15.80
2018-06-22T07:44:51.406Z,16.00
2018-06-22T07:47:19.816Z,16.00
2018-06-22T07:49:48.242Z,15.90
2018-06-22T07:52:16.641Z,15.80
2018-06-22T07:54:45.107Z,15.70
2018-06-22T07:57:13.519Z,15.70
2018-06-22T07:59:41.910Z,15.60
2018-06-22T08:02:10.694Z,15.70
2018-06-22T08:04:39.060Z,15.80
2018-06-22T08:07:07.453Z,15.70
2018-06-22T08:09:35.820Z,15.70
2018-06-22T08:12:04.233Z,15.80
2018-06-22T08:14:32.609Z,15.70
2018-06-22T08:17:00.977Z,15.70
2018-06-22T08:19:29.376Z,15.70
2018-06-22T08:21:57.752Z,15.60
2018-06-22T08:24:26.286Z,15.70
2018-06-22T08:26:54.702Z,15.60
2018-06-22T08:29:23.108Z,15.60
2018-06-22T08:31:51.503Z,15.60
2018-06-22T08:34:19.878Z,15.60
2018-06-22T08:36:48.301Z,15.50
2018-06-22T08:39:16.694Z,15.50
2018-06-22T08:41:45.133Z,15.60
2018-06-22T08:46:41.568Z,15.70
2018-06-22T08:49:09.965Z,15.70
2018-06-22T08:51:38.329Z,15.70
2018-06-22T08:54:06.698Z,15.60
2018-06-22T08:56:35.082Z,15.60
2018-06-22T08:59:03.485Z,15.60
2018-06-22T09:01:31.854Z,15.60
2018-06-22T09:04:00.266Z,15.60
2018-06-22T09:06:28.649Z,15.70
2018-06-22T09:08:57.030Z,15.60
2018-06-22T09:11:25.457Z,15.60
2018-06-22T09:13:53.835Z,15.60
2018-06-22T09:16:22.260Z,15.70
2018-06-22T09:18:50.645Z,15.60
2018-06-22T09:21:19.157Z,15.60
2018-06-22T09:23:47.546Z,15.50
2018-06-22T09:26:15.977Z,15.60
2018-06-22T09:28:44.375Z,15.60
2018-06-22T09:31:12.853Z,15.70
2018-06-22T09:33:41.203Z,15.80
2018-06-22T09:36:09.617Z,15.80
2018-06-22T09:38:38.021Z,15.80
2018-06-22T09:41:06.399Z,15.70
2018-06-22T09:43:34.781Z,15.80
2018-06-22T09:46:03.169Z,15.90
2018-06-22T09:48:31.602Z,16.00
2018-06-22T09:50:59.970Z,16.00
2018-06-22T09:53:28.391Z,16.00
2018-06-22T09:55:56.780Z,16.00
2018-06-22T09:58:25.174Z,16.00
2018-06-22T10:00:53.866Z,16.00
2018-06-22T10:03:23.401Z,15.90
2018-06-22T10:05:51.777Z,15.90
2018-06-22T10:08:20.293Z,15.80
2018-06-22T10:10:48.662Z,15.80
2018-06-22T10:13:17.148Z,15.70
2018-06-22T10:15:50.913Z,15.60
2018-06-22T10:18:19.298Z,15.70
2018-06-22T10:20:47.681Z,15.70
2018-06-22T10:23:16.082Z,15.80
2018-06-22T10:28:12.605Z,16.00
2018-06-22T10:30:40.992Z,16.10
2018-06-22T10:33:09.389Z,16.10
2018-06-22T10:35:37.801Z,16.20
2018-06-22T10:38:06.484Z,16.10
2018-06-22T10:40:35.081Z,16.20
2018-06-22T10:43:03.554Z,16.20
2018-06-22T10:45:32.000Z,16.10
2018-06-22T10:48:00.425Z,16.10
2018-06-22T10:50:28.870Z,16.00
2018-06-22T10:52:57.318Z,16.10
2018-06-22T10:55:25.784Z,16.10
2018-06-22T10:57:54.178Z,16.20
2018-06-22T11:00:22.627Z,16.20
2018-06-22T11:02:51.002Z,16.20
2018-06-22T11:05:19.657Z,16.20
2018-06-22T11:10:16.125Z,16.40
2018-06-22T11:15:12.633Z,16.50
2018-06-22T11:17:41.057Z,16.60
2018-06-22T11:20:09.481Z,16.70
2018-06-22T11:22:37.886Z,16.70
2018-06-22T11:25:06.296Z,16.90
2018-06-22T11:27:34.715Z,17.00
2018-06-22T11:30:03.157Z,17.00
2018-06-22T11:32:31.565Z,16.90
2018-06-22T11:34:59.996Z,16.80
2018-06-22T11:37:28.390Z,16.60
2018-06-22T11:39:56.766Z,16.60
2018-06-22T11:42:25.178Z,16.50
2018-06-22T11:44:53.575Z,16.40
2018-06-22T11:47:21.971Z,16.30
2018-06-22T11:49:50.401Z,16.50
2018-06-22T11:52:18.766Z,16.60
2018-06-22T11:54:47.156Z,16.80
2018-06-22T11:57:15.646Z,17.00
2018-06-22T11:59:44.004Z,17.20
2018-06-22T12:02:12.385Z,17.30
2018-06-22T12:04:40.804Z,17.50
2018-06-22T12:07:09.244Z,17.50
2018-06-22T12:09:37.626Z,17.50
2018-06-22T12:12:06.199Z,17.50
2018-06-22T12:14:34.569Z,17.50
2018-06-22T12:17:02.961Z,17.40
2018-06-22T12:19:31.406Z,17.30
2018-06-22T12:21:59.835Z,17.30
2018-06-22T12:24:28.244Z,17.30
2018-06-22T12:26:56.718Z,17.40
2018-06-22T12:29:25.093Z,17.40
2018-06-22T12:31:53.482Z,17.40
2018-06-22T12:34:21.909Z,17.40
2018-06-22T12:36:50.400Z,17.30
2018-06-22T12:39:18.802Z,17.40
2018-06-22T12:41:47.205Z,17.30
2018-06-22T12:44:15.594Z,17.20
2018-06-22T12:46:43.964Z,17.20
2018-06-22T12:49:12.362Z,17.10
2018-06-22T12:51:40.753Z,17.00
2018-06-22T12:54:09.154Z,17.00
2018-06-22T12:56:37.533Z,16.90
2018-06-22T12:59:05.913Z,16.90
2018-06-22T13:01:34.345Z,17.00
2018-06-22T13:04:02.652Z,17.00
2018-06-22T13:06:31.002Z,17.10
2018-06-22T13:08:59.437Z,17.20
2018-06-22T13:11:27.880Z,17.20
2018-06-22T13:13:56.261Z,17.30
2018-06-22T13:16:24.710Z,17.30
2018-06-22T13:18:53.137Z,17.30
2018-06-22T13:21:21.533Z,17.40
2018-06-22T13:23:49.969Z,17.40
2018-06-22T13:26:18.363Z,17.40
2018-06-22T13:28:46.752Z,17.40
2018-06-22T13:31:15.171Z,17.40
2018-06-22T13:33:43.548Z,17.50
2018-06-22T13:36:12.057Z,17.40
2018-06-22T13:38:40.467Z,17.40
2018-06-22T13:41:08.821Z,17.30
2018-06-22T13:43:37.255Z,17.30
2018-06-22T13:46:05.662Z,17.40
2018-06-22T13:48:34.069Z,17.40
2018-06-22T13:51:02.833Z,17.40
2018-06-22T13:53:31.252Z,17.30
2018-06-22T13:55:59.791Z,17.20
2018-06-22T13:58:28.172Z,17.20
2018-06-22T14:00:56.557Z,17.20
2018-06-22T14:03:24.954Z,17.30
2018-06-22T14:05:58.698Z,17.40
2018-06-22T14:08:27.103Z,17.40
2018-06-22T14:10:55.481Z,17.40
2018-06-22T14:13:23.923Z,17.50
2018-06-22T14:15:52.373Z,17.40
2018-06-22T14:18:20.781Z,17.40
2018-06-22T14:20:49.165Z,17.40
2018-06-22T14:23:17.659Z,17.50
2018-06-22T14:25:46.117Z,17.50
2018-06-22T14:28:14.549Z,17.50
2018-06-22T14:30:42.978Z,17.50
2018-06-22T14:33:11.378Z,17.50
2018-06-22T14:35:39.803Z,17.50
2018-06-22T14:38:08.173Z,17.60
2018-06-22T14:40:36.588Z,17.60
2018-06-22T14:43:05.230Z,17.70
2018-06-22T14:45:33.609Z,17.80
2018-06-22T14:48:01.981Z,17.70
2018-06-22T14:50:30.401Z,17.90
2018-06-22T14:52:58.834Z,17.90
2018-06-22T14:56:36.218Z,17.90
2018-06-22T14:59:10.202Z,17.90
2018-06-22T15:01:43.844Z,17.80
2018-06-22T15:04:17.753Z,17.80
2018-06-22T15:06:51.414Z,17.80
2018-06-22T15:09:19.849Z,17.80
2018-06-22T15:11:48.249Z,17.90
2018-06-22T15:14:16.627Z,17.90
2018-06-22T15:16:45.054Z,17.80
2018-06-22T15:19:13.490Z,17.80
2018-06-22T15:21:41.902Z,17.80
2018-06-22T15:24:10.294Z,17.70
2018-06-22T15:26:38.697Z,17.80
2018-06-22T15:29:07.125Z,17.80
2018-06-22T15:31:35.570Z,17.80
2018-06-22T15:34:09.401Z,17.70
2018-06-22T15:36:43.279Z,17.70
2018-06-22T15:39:17.139Z,17.70
2018-06-22T15:42:54.558Z,17.70
2018-06-22T15:45:33.945Z,17.60
2018-06-22T15:48:07.756Z,17.60
2018-06-22T15:50:41.603Z,17.60
2018-06-22T15:53:15.285Z,17.60
2018-06-22T15:55:45.864Z,17.70
2018-06-22T15:58:14.268Z,17.70
2018-06-22T16:00:42.690Z,17.60
2018-06-22T16:03:16.478Z,17.60
2018-06-22T16:05:44.874Z,17.60
2018-06-22T16:08:13.276Z,17.70
2018-06-22T16:10:41.754Z,17.80
2018-06-22T16:13:15.477Z,17.80
2018-06-22T16:15:49.233Z,17.80
2018-06-22T16:18:23.026Z,17.80
2018-06-22T16:20:56.920Z,17.80
2018-06-22T16:23:30.742Z,17.80
2018-06-22T16:26:04.504Z,17.80
2018-06-22T16:28:32.926Z,17.90
2018-06-22T16:31:01.373Z,17.90
2018-06-22T16:33:29.798Z,17.80
2018-06-22T16:35:58.217Z,17.80
2018-06-22T16:38:26.557Z,17.90
2018-06-22T16:40:54.961Z,17.90
2018-06-22T16:43:23.365Z,17.80
2018-06-22T16:45:51.761Z,17.80
2018-06-22T16:48:20.141Z,17.80
2018-06-22T16:50:48.559Z,17.80
2018-06-22T16:53:16.950Z,17.90
2018-06-22T16:55:45.347Z,17.90
2018-06-22T16:58:19.032Z,17.90
2018-06-22T17:00:47.400Z,17.80
2018-06-22T17:03:15.789Z,17.90
2018-06-22T17:05:44.174Z,17.80
2018-06-22T17:08:17.838Z,17.80
2018-06-22T17:10:51.495Z,17.80
2018-06-22T17:13:25.222Z,17.80
2018-06-22T17:15:58.906Z,17.80
2018-06-22T17:18:32.658Z,17.80
2018-06-22T17:21:01.123Z,17.80
2018-06-22T17:23:29.606Z,17.80
2018-06-22T17:25:58.031Z,17.80
2018-06-22T17:28:26.444Z,17.80
2018-06-22T17:30:54.859Z,17.80
2018-06-22T17:33:23.261Z,17.80
2018-06-22T17:35:51.674Z,17.90
2018-06-22T17:38:20.061Z,17.80
2018-06-22T17:40:48.450Z,17.80
2018-06-22T17:43:16.846Z,17.70
2018-06-22T17:45:45.242Z,17.70
2018-06-22T17:48:13.683Z,17.60
2018-06-22T17:50:42.063Z,17.70
2018-06-22T17:53:10.458Z,17.70
2018-06-22T17:55:38.833Z,17.70
2018-06-22T17:58:07.278Z,17.60
2018-06-22T18:00:40.892Z,17.60
2018-06-22T18:03:14.675Z,17.60
2018-06-22T18:05:48.481Z,17.60
2018-06-22T18:08:22.221Z,17.60
2018-06-22T18:10:55.974Z,17.60
2018-06-22T18:13:24.367Z,17.70
2018-06-22T18:15:52.787Z,17.60
2018-06-22T18:18:21.205Z,17.60
2018-06-22T18:20:49.628Z,17.60
2018-06-22T18:23:18.070Z,17.60
2018-06-22T18:25:46.477Z,17.50
2018-06-22T18:28:14.873Z,17.50
2018-06-22T18:30:43.294Z,17.50
2018-06-22T18:33:11.749Z,17.60
2018-06-22T18:35:40.109Z,17.60
2018-06-22T18:38:08.489Z,17.60
2018-06-22T18:40:36.894Z,17.60
2018-06-22T18:43:05.416Z,17.60
2018-06-22T18:45:33.830Z,17.70
2018-06-22T18:48:02.256Z,17.70
2018-06-22T18:50:30.663Z,17.70
2018-06-22T18:53:04.398Z,17.70
2018-06-22T18:55:38.146Z,17.70
2018-06-22T18:58:12.014Z,17.70
2018-06-22T19:01:48.305Z,17.70
2018-06-22T19:04:16.699Z,17.70
2018-06-22T19:06:45.125Z,17.50
2018-06-22T19:09:13.593Z,17.50
2018-06-22T19:11:42.003Z,17.50
2018-06-22T19:14:10.388Z,17.40
2018-06-22T19:16:40.522Z,17.30
2018-06-22T19:19:09.542Z,17.40
2018-06-22T19:21:37.936Z,17.40
2018-06-22T19:24:06.406Z,17.40
2018-06-22T19:26:34.846Z,17.30
2018-06-22T19:29:03.250Z,17.20
2018-06-22T19:31:31.659Z,17.20
2018-06-22T19:34:00.059Z,17.20
2018-06-22T19:36:28.454Z,17.30
2018-06-22T19:38:56.852Z,17.20
2018-06-22T19:41:25.223Z,17.10
2018-06-22T19:43:59.787Z,17.00
2018-06-22T19:46:33.329Z,17.00
2018-06-22T19:50:07.578Z,17.00
2018-06-22T19:52:41.304Z,16.90
2018-06-22T19:55:09.710Z,16.90
2018-06-22T19:57:38.073Z,16.90
2018-06-22T20:00:06.721Z,16.80
2018-06-22T20:02:35.142Z,16.70
2018-06-22T20:05:03.570Z,16.80
2018-06-22T20:07:31.946Z,16.80
2018-06-22T20:10:00.350Z,16.90
2018-06-22T20:12:28.757Z,16.80
2018-06-22T20:14:57.252Z,16.70
2018-06-22T20:17:25.733Z,16.70
2018-06-22T20:19:54.083Z,16.70
2018-06-22T20:22:22.441Z,16.70
2018-06-22T20:24:56.129Z,16.80
2018-06-22T20:27:24.542Z,16.80
2018-06-22T20:29:52.889Z,16.80
2018-06-22T20:32:21.294Z,16.80
2018-06-22T20:34:55.087Z,16.80
2018-06-22T20:37:28.833Z,16.80
2018-06-22T20:40:02.645Z,16.80
2018-06-22T20:42:36.614Z,16.70
2018-06-22T20:45:10.896Z,16.80
2018-06-22T20:47:44.705Z,16.80
2018-06-22T20:50:18.260Z,16.70
2018-06-22T20:52:46.649Z,16.70
2018-06-22T20:55:15.022Z,16.80
2018-06-22T21:00:11.488Z,16.70
2018-06-22T21:02:39.874Z,16.70
2018-06-22T21:05:08.298Z,16.60
2018-06-22T21:07:36.681Z,16.60
2018-06-22T21:10:05.116Z,16.60
2018-06-22T21:12:40.417Z,16.70
2018-06-22T21:17:30.097Z,16.60
2018-06-22T21:19:58.512Z,16.50
2018-06-22T21:22:27.633Z,16.60
2018-06-22T21:24:56.090Z,16.60
2018-06-22T21:27:29.906Z,16.50
2018-06-22T21:30:03.620Z,16.50
2018-06-22T21:32:37.393Z,16.50
2018-06-22T21:35:11.381Z,16.40
2018-06-22T21:37:45.073Z,16.40
2018-06-22T21:40:13.498Z,16.20
2018-06-22T21:42:41.889Z,16.20
2018-06-22T21:45:10.302Z,16.20
2018-06-22T21:47:38.717Z,16.10
2018-06-22T21:50:07.156Z,16.00
2018-06-22T21:52:35.564Z,16.10
2018-06-22T21:55:03.959Z,16.00
2018-06-22T21:57:32.398Z,16.00
2018-06-22T22:00:00.790Z,16.00
2018-06-22T22:02:29.258Z,16.10
2018-06-22T22:04:57.676Z,16.20
2018-06-22T22:07:26.107Z,16.10
2018-06-22T22:09:54.525Z,16.10
2018-06-22T22:12:22.927Z,16.10
2018-06-22T22:14:51.353Z,16.00
2018-06-22T22:17:19.735Z,15.90
2018-06-22T22:19:48.158Z,15.90
2018-06-22T22:24:44.649Z,15.70
2018-06-22T22:27:13.041Z,15.70
2018-06-22T22:29:41.411Z,15.70
2018-06-22T22:32:09.777Z,15.60
2018-06-22T22:34:38.186Z,15.60
2018-06-22T22:37:06.562Z,15.50
2018-06-22T22:39:34.971Z,15.40
2018-06-22T22:42:03.421Z,15.50
2018-06-22T22:44:31.816Z,15.50
2018-06-22T22:47:00.243Z,15.60
2018-06-22T22:49:28.720Z,15.50
2018-06-22T22:51:57.101Z,15.60
2018-06-22T22:54:25.510Z,15.60
2018-06-22T22:56:53.890Z,15.60
2018-06-22T22:59:22.253Z,15.50
2018-06-22T23:01:50.674Z,15.50
2018-06-22T23:04:19.073Z,15.40
2018-06-22T23:06:47.439Z,15.30
2018-06-22T23:09:15.852Z,15.40
2018-06-22T23:11:44.230Z,15.40
2018-06-22T23:14:12.614Z,15.30
2018-06-22T23:16:41.042Z,15.20
2018-06-22T23:19:09.422Z,15.20
2018-06-22T23:21:37.843Z,15.20
2018-06-22T23:24:06.250Z,15.10
2018-06-22T23:26:34.638Z,15.10
2018-06-22T23:29:03.098Z,15.10
2018-06-22T23:31:31.485Z,15.10
2018-06-22T23:34:00.033Z,15.20
2018-06-22T23:36:28.413Z,15.20
2018-06-22T23:38:56.797Z,15.10
2018-06-22T23:41:25.274Z,15.30
2018-06-22T23:43:53.644Z,15.20
2018-06-22T23:46:22.103Z,15.00
2018-06-22T23:48:50.638Z,15.00
2018-06-22T23:51:19.009Z,15.00
2018-06-22T23:53:47.370Z,14.90
2018-06-22T23:56:15.770Z,15.00
2018-06-22T23:58:44.153Z,14.90
